createdAt,value
2016-11-15T00:00:13.248Z,17.20
2016-11-15T00:01:12.272Z,17.20
2016-11-15T00:02:11.909Z,17.20
2016-11-15T00:03:13.335Z,17.20
2016-11-15T00:04:13.260Z,17.20
2016-11-15T00:05:13.189Z,17.20
2016-11-15T00:06:12.358Z,17.20
2016-11-15T00:07:13.120Z,17.20
2016-11-15T00:08:14.356Z,17.20
2016-11-15T00:09:12.507Z,17.20
2016-11-15T00:10:12.785Z,17.20
2016-11-15T00:11:12.577Z,17.20
2016-11-15T00:12:13.539Z,17.20
2016-11-15T00:13:13.388Z,17.20
2016-11-15T00:14:13.349Z,17.20
2016-11-15T00:15:13.109Z,17.20
2016-11-15T00:16:09.830Z,17.20
2016-11-15T00:17:11.717Z,17.20
2016-11-15T00:18:14.077Z,17.20
2016-11-15T00:19:13.207Z,17.20
2016-11-15T00:20:13.327Z,17.10
2016-11-15T00:21:14.302Z,17.20
2016-11-15T00:22:13.144Z,17.10
2016-11-15T00:23:12.634Z,17.20
2016-11-15T00:24:12.119Z,17.10
2016-11-15T00:25:12.179Z,17.20
2016-11-15T00:26:11.843Z,17.10
2016-11-15T00:27:13.039Z,17.10
2016-11-15T00:28:12.776Z,17.20
2016-11-15T00:29:14.319Z,17.10
2016-11-15T00:30:13.311Z,17.20
2016-11-15T00:31:11.348Z,17.10
2016-11-15T00:32:13.268Z,17.10
2016-11-15T00:33:11.738Z,17.10
2016-11-15T00:34:12.264Z,17.10
2016-11-15T00:35:11.522Z,17.10
2016-11-15T00:36:13.257Z,17.10
2016-11-15T00:37:12.415Z,17.10
2016-11-15T00:38:13.506Z,17.10
2016-11-15T00:39:12.553Z,17.10
2016-11-15T00:40:11.850Z,17.10
2016-11-15T00:41:12.249Z,17.10
2016-11-15T00:42:13.504Z,17.10
2016-11-15T00:43:12.709Z,17.10
2016-11-15T00:44:11.828Z,17.10
2016-11-15T00:45:10.238Z,17.10
2016-11-15T00:46:12.670Z,17.10
2016-11-15T00:47:09.250Z,17.10
2016-11-15T00:48:12.320Z,17.10
2016-11-15T00:49:12.857Z,17.10
2016-11-15T00:50:12.558Z,17.10
2016-11-15T00:51:09.977Z,17.10
2016-11-15T00:52:12.294Z,17.10
2016-11-15T00:53:12.129Z,17.10
2016-11-15T00:54:11.444Z,17.10
2016-11-15T00:55:13.140Z,17.10
2016-11-15T00:56:09.846Z,17.10
2016-11-15T00:57:11.745Z,17.10
2016-11-15T00:58:10.183Z,17.10
2016-11-15T00:59:12.276Z,17.10
2016-11-15T01:00:12.280Z,17.10
2016-11-15T01:01:12.027Z,17.10
2016-11-15T01:02:12.659Z,17.10
2016-11-15T01:03:12.749Z,17.10
2016-11-15T01:04:13.490Z,17.10
2016-11-15T01:05:14.091Z,17.10
2016-11-15T01:06:12.059Z,17.10
2016-11-15T01:07:11.125Z,17.10
2016-11-15T01:08:11.951Z,17.10
2016-11-15T01:09:12.462Z,17.10
2016-11-15T01:10:12.437Z,17.10
2016-11-15T01:11:12.801Z,17.10
2016-11-15T01:12:13.211Z,17.10
2016-11-15T01:13:13.200Z,17.10
2016-11-15T01:14:13.141Z,17.10
2016-11-15T01:15:12.129Z,17.10
2016-11-15T01:16:12.111Z,17.10
2016-11-15T01:17:11.941Z,17.10
2016-11-15T01:18:12.365Z,17.10
2016-11-15T01:19:11.976Z,17.10
2016-11-15T01:20:11.859Z,17.10
2016-11-15T01:21:12.953Z,17.00
2016-11-15T01:22:12.779Z,17.10
2016-11-15T01:23:10.274Z,17.10
2016-11-15T01:24:11.628Z,17.10
2016-11-15T01:25:11.906Z,17.10
2016-11-15T01:26:13.088Z,17.10
2016-11-15T01:27:12.859Z,17.10
2016-11-15T01:28:12.641Z,17.10
2016-11-15T01:29:12.546Z,17.10
2016-11-15T01:30:11.994Z,17.10
2016-11-15T01:31:11.326Z,17.10
2016-11-15T01:32:12.330Z,17.10
2016-11-15T01:33:11.850Z,17.10
2016-11-15T01:34:13.395Z,17.10
2016-11-15T01:35:13.224Z,17.10
2016-11-15T01:36:09.651Z,17.10
2016-11-15T01:37:13.426Z,17.10
2016-11-15T01:38:12.585Z,17.10
2016-11-15T01:39:14.027Z,17.10
2016-11-15T01:40:11.247Z,17.10
2016-11-15T01:41:12.149Z,17.10
2016-11-15T01:42:11.274Z,17.10
2016-11-15T01:43:13.016Z,17.10
2016-11-15T01:44:11.246Z,17.10
2016-11-15T01:45:13.733Z,17.00
2016-11-15T01:46:12.399Z,17.10
2016-11-15T01:47:12.570Z,17.00
2016-11-15T01:48:11.564Z,17.00
2016-11-15T01:49:12.799Z,17.00
2016-11-15T01:50:13.119Z,17.10
2016-11-15T01:51:11.798Z,17.10
2016-11-15T01:52:12.824Z,17.10
2016-11-15T01:53:11.302Z,17.00
2016-11-15T01:54:13.306Z,17.00
2016-11-15T01:55:11.868Z,17.10
2016-11-15T01:56:12.278Z,17.10
2016-11-15T01:57:11.923Z,17.10
2016-11-15T01:58:12.128Z,17.10
2016-11-15T01:59:11.904Z,17.10
2016-11-15T02:00:12.653Z,17.10
2016-11-15T02:01:11.748Z,17.10
2016-11-15T02:02:12.736Z,17.10
2016-11-15T02:03:12.089Z,17.10
2016-11-15T02:04:11.587Z,17.10
2016-11-15T02:05:13.577Z,17.10
2016-11-15T02:06:13.621Z,17.10
2016-11-15T02:07:08.854Z,17.10
2016-11-15T02:08:11.750Z,17.10
2016-11-15T02:09:13.013Z,17.10
2016-11-15T02:10:11.402Z,17.10
2016-11-15T02:11:12.777Z,17.10
2016-11-15T02:12:12.292Z,17.10
2016-11-15T02:13:13.371Z,17.10
2016-11-15T02:14:12.564Z,17.10
2016-11-15T02:15:12.665Z,17.10
2016-11-15T02:16:11.496Z,17.10
2016-11-15T02:17:11.836Z,17.00
2016-11-15T02:18:13.105Z,17.10
2016-11-15T02:19:10.979Z,17.00
2016-11-15T02:20:12.979Z,17.00
2016-11-15T02:21:11.062Z,17.00
2016-11-15T02:22:12.078Z,17.00
2016-11-15T02:23:11.728Z,17.00
2016-11-15T02:24:11.714Z,17.00
2016-11-15T02:25:12.651Z,17.10
2016-11-15T02:26:12.415Z,17.10
2016-11-15T02:27:12.046Z,17.10
2016-11-15T02:28:12.631Z,17.10
2016-11-15T02:29:13.294Z,17.10
2016-11-15T02:30:12.055Z,17.10
2016-11-15T02:31:12.251Z,17.00
2016-11-15T02:32:11.942Z,17.10
2016-11-15T02:33:14.331Z,17.10
2016-11-15T02:34:12.469Z,17.00
2016-11-15T02:35:11.917Z,17.00
2016-11-15T02:36:13.597Z,17.00
2016-11-15T02:37:11.605Z,17.10
2016-11-15T02:38:12.598Z,17.00
2016-11-15T02:39:12.329Z,17.00
2016-11-15T02:40:12.286Z,17.00
2016-11-15T02:41:11.683Z,17.00
2016-11-15T02:42:12.347Z,17.00
2016-11-15T02:43:12.168Z,17.00
2016-11-15T02:44:12.575Z,17.00
2016-11-15T02:45:12.608Z,17.00
2016-11-15T02:46:10.161Z,17.00
2016-11-15T02:47:11.756Z,17.00
2016-11-15T02:48:11.606Z,17.00
2016-11-15T02:49:11.945Z,17.00
2016-11-15T02:50:13.323Z,17.00
2016-11-15T02:51:13.689Z,17.00
2016-11-15T02:52:12.204Z,17.00
2016-11-15T02:53:12.881Z,17.00
2016-11-15T02:54:13.021Z,17.00
2016-11-15T02:55:12.955Z,17.00
2016-11-15T02:56:14.308Z,17.00
2016-11-15T02:57:11.429Z,17.00
2016-11-15T02:58:11.385Z,17.00
2016-11-15T02:59:12.664Z,17.00
2016-11-15T03:00:11.702Z,17.00
2016-11-15T03:01:12.737Z,17.00
2016-11-15T03:02:11.683Z,17.00
2016-11-15T03:03:12.121Z,17.00
2016-11-15T03:04:11.687Z,17.00
2016-11-15T03:05:09.199Z,17.00
2016-11-15T03:06:12.314Z,17.00
2016-11-15T03:07:12.017Z,17.00
2016-11-15T03:08:11.899Z,17.00
2016-11-15T03:09:12.431Z,17.00
2016-11-15T03:10:12.369Z,17.00
2016-11-15T03:11:11.284Z,17.00
2016-11-15T03:12:12.317Z,17.00
2016-11-15T03:13:12.487Z,17.00
2016-11-15T03:14:12.100Z,17.00
2016-11-15T03:15:11.419Z,17.00
2016-11-15T03:16:12.448Z,17.00
2016-11-15T03:17:12.958Z,17.00
2016-11-15T03:18:11.839Z,17.00
2016-11-15T03:19:12.390Z,17.00
2016-11-15T03:20:12.120Z,17.00
2016-11-15T03:21:13.636Z,17.00
2016-11-15T03:22:11.753Z,17.00
2016-11-15T03:23:12.307Z,17.00
2016-11-15T03:24:12.663Z,17.00
2016-11-15T03:25:12.374Z,17.00
2016-11-15T03:26:11.253Z,17.00
2016-11-15T03:27:11.549Z,17.00
2016-11-15T03:28:12.881Z,17.00
2016-11-15T03:29:11.717Z,17.00
2016-11-15T03:30:13.855Z,17.00
2016-11-15T03:31:11.635Z,17.00
2016-11-15T03:32:12.593Z,17.00
2016-11-15T03:33:11.582Z,17.00
2016-11-15T03:34:11.800Z,17.00
2016-11-15T03:35:12.616Z,17.00
2016-11-15T03:36:12.455Z,17.00
2016-11-15T03:37:11.313Z,17.00
2016-11-15T03:38:12.056Z,17.00
2016-11-15T03:39:11.846Z,17.00
2016-11-15T03:40:11.884Z,17.00
2016-11-15T03:41:12.437Z,17.00
2016-11-15T03:42:12.372Z,17.00
2016-11-15T03:43:12.413Z,17.00
2016-11-15T03:44:12.980Z,17.00
2016-11-15T03:45:13.764Z,17.00
2016-11-15T03:46:12.445Z,17.00
2016-11-15T03:47:13.121Z,17.00
2016-11-15T03:48:12.467Z,17.00
2016-11-15T03:49:11.504Z,17.00
2016-11-15T03:50:12.137Z,17.00
2016-11-15T03:51:11.419Z,17.00
2016-11-15T03:52:11.353Z,17.00
2016-11-15T03:53:11.317Z,17.00
2016-11-15T03:54:11.951Z,17.00
2016-11-15T03:55:10.383Z,17.00
2016-11-15T03:56:11.895Z,17.00
2016-11-15T03:57:12.633Z,17.00
2016-11-15T03:58:11.586Z,17.00
2016-11-15T03:59:11.539Z,17.00
2016-11-15T04:00:11.464Z,17.00
2016-11-15T04:01:11.896Z,17.00
2016-11-15T04:02:11.864Z,17.00
2016-11-15T04:03:11.851Z,17.00
2016-11-15T04:04:11.735Z,17.00
2016-11-15T04:05:12.455Z,17.00
2016-11-15T04:06:11.811Z,17.00
2016-11-15T04:07:12.352Z,17.00
2016-11-15T04:08:12.822Z,17.00
2016-11-15T04:09:11.655Z,17.00
2016-11-15T04:10:09.397Z,17.00
2016-11-15T04:11:12.865Z,17.00
2016-11-15T04:12:11.606Z,17.00
2016-11-15T04:13:11.534Z,17.00
2016-11-15T04:14:10.106Z,17.00
2016-11-15T04:15:11.815Z,17.00
2016-11-15T04:16:11.783Z,17.00
2016-11-15T04:17:12.112Z,17.00
2016-11-15T04:18:11.026Z,17.00
2016-11-15T04:19:12.417Z,17.00
2016-11-15T04:20:11.701Z,17.00
2016-11-15T04:21:11.486Z,17.00
2016-11-15T04:22:11.375Z,17.00
2016-11-15T04:23:11.912Z,17.00
2016-11-15T04:24:13.694Z,17.00
2016-11-15T04:25:11.971Z,17.00
2016-11-15T04:26:11.762Z,17.00
2016-11-15T04:27:12.024Z,17.00
2016-11-15T04:28:12.482Z,17.00
2016-11-15T04:29:12.005Z,17.00
2016-11-15T04:30:11.946Z,17.00
2016-11-15T04:31:12.317Z,17.00
2016-11-15T04:32:11.302Z,17.00
2016-11-15T04:33:11.203Z,17.00
2016-11-15T04:34:13.082Z,17.00
2016-11-15T04:35:11.902Z,17.00
2016-11-15T04:36:13.295Z,17.00
2016-11-15T04:37:11.301Z,17.00
2016-11-15T04:38:11.612Z,17.00
2016-11-15T04:39:12.162Z,17.00
2016-11-15T04:40:12.684Z,17.00
2016-11-15T04:41:12.205Z,17.00
2016-11-15T04:42:11.574Z,17.00
2016-11-15T04:43:12.322Z,17.00
2016-11-15T04:44:11.183Z,17.00
2016-11-15T04:45:11.612Z,17.00
2016-11-15T04:46:12.876Z,17.00
2016-11-15T04:47:12.767Z,17.00
2016-11-15T04:48:12.540Z,17.00
2016-11-15T04:49:11.645Z,17.00
2016-11-15T04:50:12.162Z,17.00
2016-11-15T04:51:13.696Z,17.00
2016-11-15T04:52:11.614Z,17.00
2016-11-15T04:53:12.695Z,17.00
2016-11-15T04:54:09.941Z,17.00
2016-11-15T04:55:12.474Z,17.00
2016-11-15T04:56:11.767Z,17.00
2016-11-15T04:57:11.810Z,17.00
2016-11-15T04:58:12.493Z,17.00
2016-11-15T04:59:11.452Z,17.00
2016-11-15T05:00:11.982Z,17.00
2016-11-15T05:01:12.109Z,17.00
2016-11-15T05:02:11.770Z,17.00
2016-11-15T05:03:11.826Z,17.00
2016-11-15T05:04:12.556Z,17.00
2016-11-15T05:05:09.964Z,17.00
2016-11-15T05:06:11.064Z,17.00
2016-11-15T05:07:11.763Z,17.00
2016-11-15T05:08:12.120Z,17.00
2016-11-15T05:09:11.665Z,17.00
2016-11-15T05:10:11.675Z,17.00
2016-11-15T05:11:11.722Z,17.00
2016-11-15T05:12:12.126Z,17.00
2016-11-15T05:13:11.556Z,17.00
2016-11-15T05:14:12.065Z,17.00
2016-11-15T05:15:11.971Z,17.00
2016-11-15T05:16:11.896Z,17.00
2016-11-15T05:17:12.669Z,17.00
2016-11-15T05:18:12.290Z,17.00
2016-11-15T05:19:11.716Z,17.00
2016-11-15T05:20:12.081Z,17.00
2016-11-15T05:21:12.817Z,17.00
2016-11-15T05:22:12.224Z,17.00
2016-11-15T05:23:11.857Z,16.90
2016-11-15T05:24:12.315Z,17.00
2016-11-15T05:25:18.661Z,17.00
2016-11-15T05:26:14.883Z,17.00
2016-11-15T05:27:15.027Z,17.00
2016-11-15T05:28:12.182Z,17.00
2016-11-15T05:29:11.563Z,17.00
2016-11-15T05:30:09.936Z,17.00
2016-11-15T05:31:13.362Z,17.00
2016-11-15T05:32:11.875Z,17.00
2016-11-15T05:33:13.690Z,17.00
2016-11-15T05:34:11.703Z,17.00
2016-11-15T05:35:12.802Z,17.00
2016-11-15T05:36:12.583Z,17.00
2016-11-15T05:37:12.642Z,17.00
2016-11-15T05:38:11.748Z,17.00
2016-11-15T05:39:12.288Z,17.00
2016-11-15T05:40:09.713Z,17.00
2016-11-15T05:41:11.872Z,17.00
2016-11-15T05:42:12.621Z,16.90
2016-11-15T05:43:12.082Z,17.00
2016-11-15T05:44:11.961Z,17.00
2016-11-15T05:45:12.452Z,17.00
2016-11-15T05:46:12.245Z,17.00
2016-11-15T05:47:12.014Z,17.00
2016-11-15T05:48:11.954Z,17.00
2016-11-15T05:49:13.227Z,17.00
2016-11-15T05:50:12.402Z,17.00
2016-11-15T05:51:11.433Z,17.00
2016-11-15T05:52:12.116Z,17.00
2016-11-15T05:53:11.530Z,17.00
2016-11-15T05:54:11.597Z,17.00
2016-11-15T05:55:12.122Z,16.90
2016-11-15T05:56:11.745Z,17.00
2016-11-15T05:57:12.386Z,17.00
2016-11-15T05:58:09.217Z,17.00
2016-11-15T05:59:11.577Z,16.90
2016-11-15T06:00:12.954Z,17.00
2016-11-15T06:01:11.993Z,17.00
2016-11-15T06:02:10.935Z,17.00
2016-11-15T06:03:13.599Z,17.00
2016-11-15T06:04:11.567Z,17.00
2016-11-15T06:05:11.528Z,17.00
2016-11-15T06:06:11.584Z,17.00
2016-11-15T06:07:12.170Z,17.00
2016-11-15T06:08:12.430Z,17.00
2016-11-15T06:09:11.385Z,17.00
2016-11-15T06:10:11.928Z,17.00
2016-11-15T06:11:11.651Z,17.00
2016-11-15T06:12:13.214Z,17.00
2016-11-15T06:13:11.315Z,17.00
2016-11-15T06:14:12.089Z,17.00
2016-11-15T06:15:11.542Z,17.00
2016-11-15T06:16:12.266Z,17.00
2016-11-15T06:17:11.986Z,16.90
2016-11-15T06:18:11.708Z,17.00
2016-11-15T06:19:13.048Z,17.00
2016-11-15T06:20:11.015Z,16.90
2016-11-15T06:21:09.440Z,17.00
2016-11-15T06:22:12.477Z,16.90
2016-11-15T06:23:12.575Z,17.00
2016-11-15T06:24:14.077Z,17.00
2016-11-15T06:25:11.053Z,16.90
2016-11-15T06:26:11.818Z,17.00
2016-11-15T06:27:12.524Z,16.90
2016-11-15T06:28:10.200Z,17.00
2016-11-15T06:29:13.180Z,16.90
2016-11-15T06:30:11.896Z,16.90
2016-11-15T06:31:12.369Z,17.00
2016-11-15T06:32:11.995Z,16.90
2016-11-15T06:33:11.693Z,16.90
2016-11-15T06:34:11.692Z,16.90
2016-11-15T06:35:14.468Z,17.00
2016-11-15T06:36:09.688Z,17.00
2016-11-15T06:37:12.612Z,16.90
2016-11-15T06:38:12.098Z,17.00
2016-11-15T06:39:11.745Z,16.90
2016-11-15T06:40:12.195Z,17.00
2016-11-15T06:41:11.086Z,17.00
2016-11-15T06:42:11.703Z,17.00
2016-11-15T06:43:13.373Z,17.00
2016-11-15T06:44:09.953Z,17.00
2016-11-15T06:45:11.949Z,17.00
2016-11-15T06:46:12.033Z,17.00
2016-11-15T06:47:11.101Z,17.00
2016-11-15T06:48:11.893Z,17.00
2016-11-15T06:49:12.446Z,17.00
2016-11-15T06:50:12.256Z,17.00
2016-11-15T06:51:11.333Z,17.00
2016-11-15T06:52:11.320Z,17.00
2016-11-15T06:53:12.077Z,17.00
2016-11-15T06:54:10.894Z,17.00
2016-11-15T06:55:11.707Z,17.00
2016-11-15T06:56:11.723Z,17.00
2016-11-15T06:57:12.270Z,17.10
2016-11-15T06:58:11.875Z,17.10
2016-11-15T06:59:13.483Z,17.10
2016-11-15T07:00:11.025Z,17.10
2016-11-15T07:01:11.006Z,17.10
2016-11-15T07:02:10.283Z,17.10
2016-11-15T07:03:11.710Z,17.10
2016-11-15T07:04:11.679Z,17.10
2016-11-15T07:05:13.272Z,17.10
2016-11-15T07:06:11.423Z,17.10
2016-11-15T07:07:11.518Z,17.10
2016-11-15T07:08:12.035Z,17.10
2016-11-15T07:09:09.436Z,17.10
2016-11-15T07:10:11.142Z,17.10
2016-11-15T07:11:11.733Z,17.10
2016-11-15T07:12:11.680Z,17.10
2016-11-15T07:13:12.286Z,17.10
2016-11-15T07:14:11.884Z,17.10
2016-11-15T07:15:12.323Z,17.10
2016-11-15T07:16:11.283Z,17.10
2016-11-15T07:17:12.260Z,17.10
2016-11-15T07:18:11.562Z,17.10
2016-11-15T07:19:13.324Z,17.10
2016-11-15T07:20:09.760Z,17.10
2016-11-15T07:21:11.294Z,17.10
2016-11-15T07:22:11.251Z,17.10
2016-11-15T07:23:11.142Z,17.10
2016-11-15T07:24:11.921Z,17.10
2016-11-15T07:25:10.230Z,17.10
2016-11-15T07:26:11.559Z,17.10
2016-11-15T07:27:11.552Z,17.10
2016-11-15T07:28:12.381Z,17.10
2016-11-15T07:29:12.047Z,17.10
2016-11-15T07:30:09.549Z,17.10
2016-11-15T07:31:11.882Z,17.10
2016-11-15T07:32:11.981Z,17.10
2016-11-15T07:33:11.735Z,17.10
2016-11-15T07:34:13.599Z,17.10
2016-11-15T07:35:13.309Z,17.10
2016-11-15T07:36:11.340Z,17.10
2016-11-15T07:37:12.941Z,17.10
2016-11-15T07:38:11.924Z,17.10
2016-11-15T07:39:15.840Z,17.10
2016-11-15T07:40:12.524Z,17.10
2016-11-15T07:41:12.092Z,17.10
2016-11-15T07:42:12.510Z,17.10
2016-11-15T07:43:13.080Z,17.10
2016-11-15T07:44:11.525Z,17.10
2016-11-15T07:45:12.269Z,17.10
2016-11-15T07:46:11.751Z,17.10
2016-11-15T07:47:13.430Z,17.10
2016-11-15T07:48:11.369Z,17.10
2016-11-15T07:49:12.136Z,17.10
2016-11-15T07:50:12.130Z,17.10
2016-11-15T07:51:11.762Z,17.10
2016-11-15T07:52:12.248Z,17.10
2016-11-15T07:53:11.865Z,17.10
2016-11-15T07:54:09.045Z,16.50
2016-11-15T07:55:11.931Z,15.60
2016-11-15T07:56:10.279Z,14.80
2016-11-15T07:57:12.525Z,14.00
2016-11-15T07:58:12.363Z,13.70
2016-11-15T07:59:11.924Z,13.30
2016-11-15T08:00:12.452Z,13.00
2016-11-15T08:01:12.096Z,12.70
2016-11-15T08:02:11.692Z,12.30
2016-11-15T08:03:11.704Z,12.00
2016-11-15T08:04:12.677Z,12.10
2016-11-15T08:05:11.541Z,12.40
2016-11-15T08:06:12.766Z,12.80
2016-11-15T08:07:11.549Z,13.20
2016-11-15T08:08:11.988Z,13.60
2016-11-15T08:09:11.845Z,14.00
2016-11-15T08:10:13.568Z,14.30
2016-11-15T08:11:11.608Z,14.50
2016-11-15T08:12:13.429Z,14.80
2016-11-15T08:13:11.448Z,15.00
2016-11-15T08:14:11.470Z,15.20
2016-11-15T08:15:12.452Z,15.30
2016-11-15T08:16:11.373Z,15.40
2016-11-15T08:17:12.706Z,15.60
2016-11-15T08:18:12.198Z,15.70
2016-11-15T08:19:12.480Z,15.80
2016-11-15T08:20:12.099Z,15.90
2016-11-15T08:21:11.738Z,16.00
2016-11-15T08:22:12.400Z,16.00
2016-11-15T08:23:11.918Z,16.10
2016-11-15T08:24:12.593Z,16.10
2016-11-15T08:25:11.595Z,16.20
2016-11-15T08:26:10.144Z,16.20
2016-11-15T08:27:12.118Z,16.30
2016-11-15T08:28:11.520Z,16.30
2016-11-15T08:29:11.543Z,16.30
2016-11-15T08:30:11.440Z,16.40
2016-11-15T08:31:11.432Z,16.40
2016-11-15T08:32:12.472Z,16.50
2016-11-15T08:33:12.329Z,16.50
2016-11-15T08:34:11.990Z,16.50
2016-11-15T08:35:12.462Z,16.60
2016-11-15T08:36:11.518Z,16.60
2016-11-15T08:37:09.208Z,16.60
2016-11-15T08:38:12.280Z,16.60
2016-11-15T08:39:11.197Z,16.60
2016-11-15T08:40:11.304Z,16.70
2016-11-15T08:41:11.941Z,16.60
2016-11-15T08:42:14.277Z,16.70
2016-11-15T08:43:12.233Z,16.70
2016-11-15T08:44:10.641Z,16.70
2016-11-15T08:45:11.240Z,16.70
2016-11-15T08:46:12.577Z,16.70
2016-11-15T08:47:12.458Z,16.70
2016-11-15T08:48:11.388Z,16.70
2016-11-15T08:49:11.381Z,16.80
2016-11-15T08:50:11.734Z,16.80
2016-11-15T08:51:13.348Z,16.80
2016-11-15T08:52:11.413Z,16.80
2016-11-15T08:53:11.885Z,16.80
2016-11-15T08:54:11.985Z,16.80
2016-11-15T08:55:09.505Z,16.80
2016-11-15T08:56:12.007Z,16.80
2016-11-15T08:57:13.629Z,16.80
2016-11-15T08:58:11.656Z,16.80
2016-11-15T08:59:12.380Z,16.90
2016-11-15T09:00:11.350Z,16.90
2016-11-15T09:01:11.253Z,16.90
2016-11-15T09:02:11.734Z,16.90
2016-11-15T09:03:11.677Z,16.90
2016-11-15T09:04:11.668Z,16.90
2016-11-15T09:05:12.179Z,16.90
2016-11-15T09:06:11.239Z,16.90
2016-11-15T09:07:12.186Z,16.90
2016-11-15T09:08:11.908Z,16.90
2016-11-15T09:09:12.353Z,16.90
2016-11-15T09:10:11.427Z,16.90
2016-11-15T09:11:11.868Z,16.90
2016-11-15T09:12:10.257Z,16.90
2016-11-15T09:13:12.382Z,16.90
2016-11-15T09:14:12.223Z,16.90
2016-11-15T09:15:11.316Z,16.90
2016-11-15T09:16:12.938Z,16.90
2016-11-15T09:17:12.732Z,17.00
2016-11-15T09:18:11.029Z,17.00
2016-11-15T09:19:12.366Z,17.00
2016-11-15T09:20:11.455Z,17.00
2016-11-15T09:21:11.869Z,16.90
2016-11-15T09:22:12.175Z,17.00
2016-11-15T09:23:11.160Z,16.90
2016-11-15T09:24:12.018Z,17.00
2016-11-15T09:25:10.586Z,17.00
2016-11-15T09:26:10.582Z,17.00
2016-11-15T09:27:10.376Z,17.00
2016-11-15T09:28:11.709Z,17.00
2016-11-15T09:29:11.233Z,17.00
2016-11-15T09:30:11.904Z,17.00
2016-11-15T09:31:11.935Z,17.00
2016-11-15T09:32:11.852Z,17.00
2016-11-15T09:33:12.436Z,17.00
2016-11-15T09:34:11.452Z,16.90
2016-11-15T09:35:11.529Z,16.90
2016-11-15T09:36:11.644Z,16.90
2016-11-15T09:37:13.343Z,16.90
2016-11-15T09:38:11.832Z,16.90
2016-11-15T09:39:11.776Z,16.90
2016-11-15T09:40:11.749Z,16.90
2016-11-15T09:41:11.622Z,16.90
2016-11-15T09:42:09.676Z,16.90
2016-11-15T09:43:12.000Z,17.00
2016-11-15T09:44:11.857Z,16.90
2016-11-15T09:45:12.110Z,17.00
2016-11-15T09:46:11.631Z,16.90
2016-11-15T09:47:13.326Z,16.90
2016-11-15T09:48:11.271Z,16.90
2016-11-15T09:49:11.284Z,16.90
2016-11-15T09:50:12.180Z,17.00
2016-11-15T09:51:12.957Z,16.90
2016-11-15T09:52:12.279Z,16.90
2016-11-15T09:53:11.756Z,16.90
2016-11-15T09:54:11.619Z,16.90
2016-11-15T09:55:11.935Z,16.90
2016-11-15T09:56:12.859Z,16.90
2016-11-15T09:57:11.120Z,16.90
2016-11-15T09:58:11.760Z,16.90
2016-11-15T09:59:12.307Z,17.00
2016-11-15T10:00:11.856Z,16.90
2016-11-15T10:01:11.888Z,16.90
2016-11-15T10:02:11.854Z,17.00
2016-11-15T10:03:11.818Z,17.00
2016-11-15T10:04:11.865Z,17.00
2016-11-15T10:05:13.504Z,17.00
2016-11-15T10:06:11.730Z,17.00
2016-11-15T10:07:11.769Z,17.00
2016-11-15T10:08:13.702Z,17.00
2016-11-15T10:09:10.025Z,17.00
2016-11-15T10:10:10.055Z,17.00
2016-11-15T10:11:11.511Z,17.00
2016-11-15T10:12:13.435Z,17.00
2016-11-15T10:13:09.943Z,17.00
2016-11-15T10:14:11.348Z,17.00
2016-11-15T10:15:11.970Z,17.00
2016-11-15T10:16:11.747Z,17.00
2016-11-15T10:17:10.113Z,17.00
2016-11-15T10:18:11.573Z,17.00
2016-11-15T10:19:10.015Z,17.00
2016-11-15T10:20:11.940Z,17.00
2016-11-15T10:21:12.026Z,17.00
2016-11-15T10:22:09.559Z,17.00
2016-11-15T10:23:11.029Z,17.00
2016-11-15T10:24:10.347Z,17.00
2016-11-15T10:25:12.467Z,17.00
2016-11-15T10:26:11.959Z,17.00
2016-11-15T10:27:14.649Z,17.00
2016-11-15T10:28:14.167Z,17.00
2016-11-15T10:29:11.978Z,17.00
2016-11-15T10:30:11.650Z,17.00
2016-11-15T10:31:12.265Z,17.00
2016-11-15T10:32:12.708Z,17.00
2016-11-15T10:33:12.169Z,17.00
2016-11-15T10:34:11.044Z,17.00
2016-11-15T10:35:09.542Z,17.00
2016-11-15T10:36:11.834Z,17.00
2016-11-15T10:37:11.629Z,17.00
2016-11-15T10:38:11.590Z,17.00
2016-11-15T10:39:11.977Z,17.00
2016-11-15T10:40:09.795Z,17.00
2016-11-15T10:41:12.667Z,17.00
2016-11-15T10:42:12.164Z,17.00
2016-11-15T10:43:12.191Z,17.00
2016-11-15T10:44:11.120Z,17.00
2016-11-15T10:45:11.527Z,17.00
2016-11-15T10:46:11.691Z,17.00
2016-11-15T10:47:12.299Z,17.00
2016-11-15T10:48:13.008Z,17.00
2016-11-15T10:49:11.887Z,17.00
2016-11-15T10:50:13.604Z,17.00
2016-11-15T10:51:11.659Z,17.00
2016-11-15T10:52:11.568Z,17.00
2016-11-15T10:53:11.991Z,17.00
2016-11-15T10:54:11.899Z,17.00
2016-11-15T10:55:13.506Z,17.00
2016-11-15T10:56:11.779Z,17.00
2016-11-15T10:57:11.714Z,17.00
2016-11-15T10:58:11.553Z,17.00
2016-11-15T10:59:12.231Z,17.00
2016-11-15T11:00:11.972Z,17.00
2016-11-15T11:01:11.971Z,17.00
2016-11-15T11:02:12.687Z,17.00
2016-11-15T11:03:12.525Z,17.00
2016-11-15T11:04:12.153Z,17.00
2016-11-15T11:05:11.178Z,17.00
2016-11-15T11:06:11.329Z,17.00
2016-11-15T11:07:12.146Z,17.00
2016-11-15T11:08:11.740Z,17.00
2016-11-15T11:09:12.052Z,17.00
2016-11-15T11:10:11.125Z,17.00
2016-11-15T11:11:11.162Z,17.00
2016-11-15T11:12:09.888Z,17.00
2016-11-15T11:13:11.780Z,17.00
2016-11-15T11:14:12.602Z,17.00
2016-11-15T11:15:12.117Z,17.00
2016-11-15T11:16:11.827Z,17.00
2016-11-15T11:17:12.475Z,17.00
2016-11-15T11:18:13.238Z,17.00
2016-11-15T11:19:11.147Z,17.00
2016-11-15T11:20:11.424Z,17.00
2016-11-15T11:21:11.905Z,17.00
2016-11-15T11:22:11.848Z,17.00
2016-11-15T11:23:12.562Z,17.00
2016-11-15T11:24:11.618Z,17.00
2016-11-15T11:25:12.255Z,17.00
2016-11-15T11:26:11.267Z,17.00
2016-11-15T11:27:12.792Z,17.00
2016-11-15T11:28:11.696Z,17.00
2016-11-15T11:29:15.402Z,17.10
2016-11-15T11:30:11.282Z,17.00
2016-11-15T11:31:11.133Z,17.00
2016-11-15T11:32:12.724Z,17.00
2016-11-15T11:33:12.377Z,17.00
2016-11-15T11:34:11.355Z,17.00
2016-11-15T11:35:11.328Z,17.00
2016-11-15T11:36:12.123Z,17.00
2016-11-15T11:37:11.019Z,17.00
2016-11-15T11:38:11.735Z,17.00
2016-11-15T11:39:12.276Z,17.00
2016-11-15T11:40:12.759Z,17.10
2016-11-15T11:41:12.811Z,17.00
2016-11-15T11:42:12.478Z,17.00
2016-11-15T11:43:13.359Z,17.00
2016-11-15T11:44:12.189Z,17.00
2016-11-15T11:45:12.903Z,17.10
2016-11-15T11:46:12.470Z,17.00
2016-11-15T11:47:12.989Z,17.10
2016-11-15T11:48:11.479Z,17.10
2016-11-15T11:49:12.185Z,17.10
2016-11-15T11:50:11.585Z,17.10
2016-11-15T11:51:11.600Z,17.10
2016-11-15T11:52:12.210Z,17.00
2016-11-15T11:53:11.597Z,17.10
2016-11-15T11:54:11.545Z,17.00
2016-11-15T11:55:11.968Z,17.10
2016-11-15T11:56:12.502Z,17.00
2016-11-15T11:57:12.927Z,17.10
2016-11-15T11:58:11.911Z,17.10
2016-11-15T11:59:13.387Z,17.10
2016-11-15T12:00:12.063Z,17.00
2016-11-15T12:01:10.923Z,17.10
2016-11-15T12:02:10.177Z,17.10
2016-11-15T12:03:13.293Z,17.10
2016-11-15T12:04:12.040Z,17.10
2016-11-15T12:05:11.145Z,17.10
2016-11-15T12:06:12.784Z,17.10
2016-11-15T12:07:11.735Z,17.00
2016-11-15T12:08:11.695Z,17.00
2016-11-15T12:09:11.657Z,17.10
2016-11-15T12:10:13.354Z,17.10
2016-11-15T12:11:09.146Z,17.10
2016-11-15T12:12:11.498Z,17.00
2016-11-15T12:13:13.084Z,17.00
2016-11-15T12:14:11.451Z,17.10
2016-11-15T12:15:11.569Z,17.00
2016-11-15T12:16:11.545Z,17.00
2016-11-15T12:17:11.619Z,17.00
2016-11-15T12:18:12.110Z,17.00
2016-11-15T12:19:11.269Z,17.00
2016-11-15T12:20:11.803Z,17.00
2016-11-15T12:21:11.626Z,17.00
2016-11-15T12:22:12.037Z,17.00
2016-11-15T12:23:11.509Z,17.10
2016-11-15T12:24:11.269Z,17.00
2016-11-15T12:25:11.287Z,17.00
2016-11-15T12:26:11.307Z,17.00
2016-11-15T12:27:11.325Z,17.00
2016-11-15T12:28:11.815Z,17.00
2016-11-15T12:29:11.785Z,17.00
2016-11-15T12:30:10.226Z,17.00
2016-11-15T12:31:12.235Z,17.00
2016-11-15T12:32:11.875Z,17.00
2016-11-15T12:33:11.893Z,17.00
2016-11-15T12:34:11.798Z,17.00
2016-11-15T12:35:11.666Z,17.00
2016-11-15T12:36:12.379Z,17.00
2016-11-15T12:37:11.538Z,17.00
2016-11-15T12:38:12.296Z,17.10
2016-11-15T12:39:11.332Z,17.00
2016-11-15T12:40:11.681Z,17.10
2016-11-15T12:41:12.220Z,17.10
2016-11-15T12:42:11.105Z,17.00
2016-11-15T12:43:11.102Z,17.00
2016-11-15T12:44:11.560Z,17.10
2016-11-15T12:45:11.700Z,17.10
2016-11-15T12:46:13.034Z,17.10
2016-11-15T12:47:10.182Z,17.10
2016-11-15T12:48:11.836Z,17.00
2016-11-15T12:49:12.324Z,17.00
2016-11-15T12:50:11.937Z,17.10
2016-11-15T12:51:12.603Z,17.00
2016-11-15T12:52:12.456Z,17.00